createdAt,value
2017-09-07T00:02:08.002Z,91.70
2017-09-07T00:04:35.614Z,91.70
2017-09-07T00:07:03.230Z,92.20
2017-09-07T00:09:30.857Z,91.90
2017-09-07T00:11:58.463Z,91.70
2017-09-07T00:14:26.113Z,91.80
2017-09-07T00:16:53.698Z,91.90
2017-09-07T00:19:21.302Z,91.50
2017-09-07T00:21:48.909Z,91.60
2017-09-07T00:24:16.528Z,91.90
2017-09-07T00:26:44.135Z,91.40
2017-09-07T00:29:11.732Z,91.30
2017-09-07T00:31:39.346Z,90.90
2017-09-07T00:34:06.937Z,90.80
2017-09-07T00:36:34.522Z,91.00
2017-09-07T00:39:02.089Z,90.80
2017-09-07T00:41:29.656Z,90.60
2017-09-07T00:43:57.282Z,90.70
2017-09-07T00:46:24.897Z,91.20
2017-09-07T00:48:52.515Z,90.90
2017-09-07T00:51:20.149Z,91.40
2017-09-07T00:53:47.856Z,91.70
2017-09-07T00:56:15.465Z,91.60
2017-09-07T00:58:43.082Z,91.70
2017-09-07T01:01:10.686Z,91.90
2017-09-07T01:03:38.300Z,91.50
2017-09-07T01:06:05.917Z,91.30
2017-09-07T01:08:33.522Z,91.70
2017-09-07T01:11:01.113Z,91.80
2017-09-07T01:13:28.739Z,92.00
2017-09-07T01:15:56.351Z,92.00
2017-09-07T01:18:23.962Z,92.10
2017-09-07T01:20:51.596Z,91.90
2017-09-07T01:23:19.234Z,92.00
2017-09-07T01:25:46.828Z,92.10
2017-09-07T01:28:14.419Z,92.30
2017-09-07T01:30:42.042Z,92.50
2017-09-07T01:33:09.690Z,92.70
2017-09-07T01:35:37.305Z,92.80
2017-09-07T01:38:04.920Z,92.80
2017-09-07T01:40:32.550Z,93.00
2017-09-07T01:43:00.174Z,93.00
2017-09-07T01:45:27.792Z,93.10
2017-09-07T01:47:55.633Z,93.20
2017-09-07T01:50:23.274Z,93.20
2017-09-07T01:52:50.878Z,93.40
2017-09-07T01:55:18.502Z,93.30
2017-09-07T01:57:46.129Z,93.20
2017-09-07T02:00:13.762Z,93.30
2017-09-07T02:02:41.403Z,93.30
2017-09-07T02:05:09.128Z,93.10
2017-09-07T02:07:36.754Z,93.30
2017-09-07T02:10:04.465Z,93.50
2017-09-07T02:12:32.036Z,93.30
2017-09-07T02:14:59.616Z,93.70
2017-09-07T02:17:27.226Z,93.70
2017-09-07T02:19:54.833Z,93.80
2017-09-07T02:22:22.448Z,93.70
2017-09-07T02:24:50.058Z,93.80
2017-09-07T02:27:17.678Z,93.70
2017-09-07T02:29:45.306Z,93.70
2017-09-07T02:32:12.884Z,93.70
2017-09-07T02:34:40.495Z,93.70
2017-09-07T02:37:08.111Z,93.60
2017-09-07T02:39:35.684Z,93.70
2017-09-07T02:42:03.306Z,94.00
2017-09-07T02:44:30.917Z,94.00
2017-09-07T02:46:58.487Z,94.00
2017-09-07T02:49:26.053Z,94.20
2017-09-07T02:51:53.627Z,94.30
2017-09-07T02:54:21.231Z,94.10
2017-09-07T02:56:48.841Z,94.50
2017-09-07T02:59:16.462Z,94.40
2017-09-07T03:01:44.080Z,94.80
2017-09-07T03:04:12.245Z,94.20
2017-09-07T03:06:39.918Z,94.20
2017-09-07T03:09:07.530Z,94.00
2017-09-07T03:11:35.137Z,93.70
2017-09-07T03:14:02.747Z,93.50
2017-09-07T03:16:30.357Z,93.40
2017-09-07T03:18:57.957Z,92.90
2017-09-07T03:21:25.608Z,92.80
2017-09-07T03:23:53.206Z,92.90
2017-09-07T03:26:20.811Z,92.70
2017-09-07T03:28:48.384Z,92.40
2017-09-07T03:31:15.993Z,92.40
2017-09-07T03:33:43.605Z,92.40
2017-09-07T03:36:11.218Z,92.00
2017-09-07T03:38:38.813Z,92.20
2017-09-07T03:41:06.425Z,92.10
2017-09-07T03:43:34.046Z,92.20
2017-09-07T03:46:01.666Z,92.00
2017-09-07T03:48:30.103Z,92.00
2017-09-07T03:50:57.963Z,92.50
2017-09-07T03:53:25.630Z,92.50
2017-09-07T03:55:53.205Z,93.00
2017-09-07T03:58:20.790Z,92.80
2017-09-07T04:00:48.522Z,92.90
2017-09-07T04:03:16.126Z,92.50
2017-09-07T04:05:43.942Z,92.60
2017-09-07T04:08:11.570Z,92.50
2017-09-07T04:10:39.146Z,92.30
2017-09-07T04:13:06.762Z,92.10
2017-09-07T04:15:34.406Z,92.10
2017-09-07T04:18:02.531Z,91.80
2017-09-07T04:20:30.569Z,91.60
2017-09-07T04:22:58.177Z,91.80
2017-09-07T04:25:25.793Z,91.80
2017-09-07T04:27:53.366Z,91.70
2017-09-07T04:30:20.988Z,91.60
2017-09-07T04:32:48.602Z,91.60
2017-09-07T04:35:16.214Z,91.70
2017-09-07T04:37:43.853Z,91.70
2017-09-07T04:40:11.481Z,91.50
2017-09-07T04:42:39.048Z,91.60
2017-09-07T04:45:06.616Z,91.30
2017-09-07T04:47:34.219Z,91.40
2017-09-07T04:50:01.835Z,91.40
2017-09-07T04:52:29.439Z,91.50
2017-09-07T04:54:57.070Z,91.70
2017-09-07T04:57:24.747Z,91.90
2017-09-07T04:59:52.364Z,91.60
2017-09-07T05:02:20.021Z,91.60
2017-09-07T05:04:47.630Z,91.10
2017-09-07T05:07:15.206Z,91.10
2017-09-07T05:09:42.821Z,91.00
2017-09-07T05:12:10.463Z,90.90
2017-09-07T05:14:38.082Z,90.80
2017-09-07T05:17:05.689Z,90.60
2017-09-07T05:19:33.296Z,90.50
2017-09-07T05:22:00.917Z,90.60
2017-09-07T05:24:28.527Z,90.30
2017-09-07T05:26:56.134Z,90.40
2017-09-07T05:29:23.794Z,90.20
2017-09-07T05:31:51.414Z,90.20
2017-09-07T05:34:19.026Z,89.80
2017-09-07T05:36:46.638Z,89.80
2017-09-07T05:39:14.246Z,90.10
2017-09-07T05:41:41.861Z,90.00
2017-09-07T05:44:09.465Z,89.70
2017-09-07T05:46:37.079Z,89.50
2017-09-07T05:49:04.703Z,89.00
2017-09-07T05:51:32.287Z,88.10
2017-09-07T05:53:59.965Z,88.40
2017-09-07T05:56:27.574Z,87.70
2017-09-07T05:58:55.151Z,87.60
2017-09-07T06:01:22.778Z,87.20
2017-09-07T06:03:50.386Z,86.30
2017-09-07T06:06:18.000Z,85.80
2017-09-07T06:08:45.617Z,85.90
2017-09-07T06:11:13.236Z,85.00
2017-09-07T06:13:40.906Z,85.70
2017-09-07T06:16:08.530Z,83.60
2017-09-07T06:18:36.139Z,83.50
2017-09-07T06:21:03.762Z,83.20
2017-09-07T06:23:31.334Z,82.60
2017-09-07T06:25:58.907Z,81.90
2017-09-07T06:28:26.530Z,80.40
2017-09-07T06:30:54.142Z,79.40
2017-09-07T06:33:21.747Z,77.00
2017-09-07T06:35:49.426Z,71.50
2017-09-07T06:38:17.043Z,65.00
2017-09-07T06:40:44.618Z,58.50
2017-09-07T06:43:12.246Z,58.10
2017-09-07T06:45:39.866Z,61.00
2017-09-07T06:48:07.537Z,63.10
2017-09-07T06:50:35.103Z,64.70
2017-09-07T06:53:02.703Z,66.20
2017-09-07T06:55:30.281Z,66.90
2017-09-07T06:57:57.889Z,66.80
2017-09-07T07:00:25.503Z,68.00
2017-09-07T07:02:53.093Z,69.50
2017-09-07T07:05:20.716Z,70.80
2017-09-07T07:07:48.322Z,71.30
2017-09-07T07:10:15.954Z,71.50
2017-09-07T07:12:43.581Z,72.10
2017-09-07T07:15:11.166Z,70.90
2017-09-07T07:17:38.830Z,70.60
2017-09-07T07:20:06.457Z,70.70
2017-09-07T07:22:34.154Z,70.20
2017-09-07T07:25:01.782Z,68.70
2017-09-07T07:27:29.498Z,66.70
2017-09-07T07:29:57.199Z,64.00
2017-09-07T07:32:24.830Z,62.40
2017-09-07T07:34:52.567Z,61.30
2017-09-07T07:37:20.187Z,61.70
2017-09-07T07:39:47.828Z,58.60
2017-09-07T07:42:15.458Z,54.50
2017-09-07T07:44:43.114Z,54.90
2017-09-07T07:47:10.756Z,56.60
2017-09-07T07:49:38.330Z,57.70
2017-09-07T07:52:05.915Z,60.10
2017-09-07T07:54:33.552Z,63.70
2017-09-07T07:57:01.139Z,65.00
2017-09-07T07:59:28.750Z,65.80
2017-09-07T08:01:56.367Z,67.90
2017-09-07T08:04:23.969Z,69.70
2017-09-07T08:06:51.666Z,69.90
2017-09-07T08:09:19.297Z,71.90
2017-09-07T08:11:46.902Z,69.80
2017-09-07T08:14:14.482Z,69.40
2017-09-07T08:16:42.107Z,69.40
2017-09-07T08:19:09.680Z,68.60
2017-09-07T08:21:37.258Z,70.10
2017-09-07T08:24:04.849Z,69.00
2017-09-07T08:26:32.481Z,70.30
2017-09-07T08:29:00.067Z,71.00
2017-09-07T08:31:27.696Z,70.30
2017-09-07T08:33:55.309Z,69.60
2017-09-07T08:36:22.893Z,69.10
2017-09-07T08:38:50.502Z,67.50
2017-09-07T08:41:18.140Z,67.70
2017-09-07T08:43:45.961Z,66.60
2017-09-07T08:46:13.911Z,68.00
2017-09-07T08:48:42.570Z,67.30
2017-09-07T08:51:10.707Z,66.40
2017-09-07T08:53:41.700Z,67.30
2017-09-07T08:56:09.783Z,67.30
2017-09-07T08:58:37.589Z,66.90
2017-09-07T09:01:05.956Z,66.90
2017-09-07T09:03:37.453Z,68.10
2017-09-07T09:06:07.572Z,69.70
2017-09-07T09:08:35.203Z,71.10
2017-09-07T09:11:02.825Z,71.20
2017-09-07T09:13:30.398Z,70.40
2017-09-07T09:15:58.024Z,71.20
2017-09-07T09:18:25.650Z,71.40
2017-09-07T09:20:53.312Z,71.50
2017-09-07T09:23:20.935Z,71.20
2017-09-07T09:25:48.670Z,68.80
2017-09-07T09:28:17.012Z,69.30
2017-09-07T09:30:44.626Z,69.30
2017-09-07T09:33:12.205Z,69.90
2017-09-07T09:35:39.777Z,72.10
2017-09-07T09:38:07.385Z,74.40
2017-09-07T09:40:35.026Z,72.60
2017-09-07T09:43:02.644Z,66.90
2017-09-07T09:45:30.268Z,61.70
2017-09-07T09:47:57.883Z,57.70
2017-09-07T09:50:25.822Z,53.80
2017-09-07T09:52:53.440Z,48.40
2017-09-07T09:55:21.050Z,51.70
2017-09-07T09:57:48.684Z,54.60
2017-09-07T10:00:16.303Z,58.60
2017-09-07T10:02:43.921Z,62.20
2017-09-07T10:05:11.540Z,62.40
2017-09-07T10:07:39.125Z,63.90
2017-09-07T10:10:06.750Z,65.40
2017-09-07T10:12:34.392Z,67.50
2017-09-07T10:15:02.616Z,69.70
2017-09-07T10:17:30.255Z,70.70
2017-09-07T10:19:57.836Z,72.20
2017-09-07T10:22:25.449Z,72.00
2017-09-07T10:24:53.238Z,73.00
2017-09-07T10:27:22.610Z,70.70
2017-09-07T10:29:50.489Z,68.80
2017-09-07T10:32:18.059Z,69.60
2017-09-07T10:34:45.964Z,68.40
2017-09-07T10:37:15.296Z,66.40
2017-09-07T10:39:43.280Z,66.20
2017-09-07T10:42:10.975Z,65.80
2017-09-07T10:44:38.613Z,64.10
2017-09-07T10:47:06.229Z,61.50
2017-09-07T10:49:33.851Z,56.90
2017-09-07T10:52:01.482Z,53.90
2017-09-07T10:54:29.092Z,53.30
2017-09-07T10:56:56.713Z,53.60
2017-09-07T10:59:24.347Z,54.80
2017-09-07T11:01:51.975Z,54.20
2017-09-07T11:04:19.851Z,55.30
2017-09-07T11:06:47.466Z,55.60
2017-09-07T11:09:23.059Z,56.60
2017-09-07T11:11:50.687Z,59.10
2017-09-07T11:14:18.319Z,61.10
2017-09-07T11:16:45.944Z,60.80
2017-09-07T11:19:13.648Z,60.60
2017-09-07T11:21:41.228Z,58.60
2017-09-07T11:24:08.890Z,56.20
2017-09-07T11:26:36.559Z,53.90
2017-09-07T11:29:04.167Z,53.70
2017-09-07T11:31:31.761Z,52.90
2017-09-07T11:33:59.392Z,52.70
2017-09-07T11:36:26.987Z,52.40
2017-09-07T11:38:54.612Z,53.60
2017-09-07T11:41:22.296Z,49.40
2017-09-07T11:43:49.937Z,47.30
2017-09-07T11:46:17.706Z,47.20
2017-09-07T11:48:45.385Z,49.30
2017-09-07T11:51:12.992Z,51.70
2017-09-07T11:53:40.628Z,53.40
2017-09-07T11:56:08.258Z,56.40
2017-09-07T11:58:35.828Z,57.30
2017-09-07T12:01:03.458Z,57.70
2017-09-07T12:03:31.065Z,59.60
2017-09-07T12:05:58.705Z,60.50
2017-09-07T12:08:26.311Z,61.70
2017-09-07T12:10:53.919Z,61.10
2017-09-07T12:13:21.546Z,59.20
2017-09-07T12:15:49.115Z,58.60
2017-09-07T12:18:16.720Z,60.10
2017-09-07T12:20:44.330Z,59.80
2017-09-07T12:23:11.934Z,57.40
2017-09-07T12:25:39.675Z,58.80
2017-09-07T12:28:07.334Z,57.70
2017-09-07T12:30:34.914Z,59.10
2017-09-07T12:33:02.750Z,62.10
2017-09-07T12:35:30.360Z,64.10
2017-09-07T12:37:57.982Z,64.10
2017-09-07T12:40:25.599Z,63.30
2017-09-07T12:42:53.212Z,63.00
2017-09-07T12:45:20.809Z,64.00
2017-09-07T12:47:48.448Z,64.10
2017-09-07T12:50:16.050Z,64.80
2017-09-07T12:52:43.806Z,64.70
2017-09-07T12:55:12.569Z,63.40
2017-09-07T12:57:40.218Z,63.00
2017-09-07T13:00:08.009Z,61.90
2017-09-07T13:02:36.318Z,62.40
2017-09-07T13:05:03.920Z,59.00
2017-09-07T13:07:31.546Z,62.30
2017-09-07T13:09:59.117Z,59.90
2017-09-07T13:12:26.733Z,60.50
2017-09-07T13:14:54.984Z,60.10
2017-09-07T13:17:22.932Z,59.60
2017-09-07T13:19:50.613Z,59.00
2017-09-07T13:22:18.234Z,61.20
2017-09-07T13:24:45.847Z,60.40
2017-09-07T13:27:13.472Z,60.60
2017-09-07T13:29:41.089Z,62.20
2017-09-07T13:32:08.707Z,65.50
2017-09-07T13:34:36.341Z,67.00
2017-09-07T13:37:03.922Z,69.10
2017-09-07T13:39:31.495Z,69.50
2017-09-07T13:41:59.158Z,70.60
2017-09-07T13:44:26.778Z,71.40
2017-09-07T13:46:54.387Z,72.30
2017-09-07T13:49:22.761Z,75.10
2017-09-07T13:51:50.367Z,75.10
2017-09-07T13:54:17.947Z,75.10
2017-09-07T13:56:45.553Z,75.70
2017-09-07T13:59:13.895Z,75.10
2017-09-07T14:01:41.739Z,75.10
2017-09-07T14:04:09.352Z,75.90
2017-09-07T14:06:36.970Z,79.60
2017-09-07T14:09:04.675Z,82.50
2017-09-07T14:11:32.283Z,83.10
2017-09-07T14:13:59.859Z,81.50
2017-09-07T14:16:27.477Z,79.30
2017-09-07T14:18:55.105Z,78.80
2017-09-07T14:21:22.687Z,78.60
2017-09-07T14:23:50.311Z,79.40
2017-09-07T14:26:17.924Z,77.80
2017-09-07T14:28:45.531Z,78.10
2017-09-07T14:31:13.188Z,75.90
2017-09-07T14:33:40.818Z,75.20
2017-09-07T14:36:08.428Z,73.60
2017-09-07T14:38:36.044Z,72.10
2017-09-07T14:41:03.658Z,72.10
2017-09-07T14:43:31.271Z,69.00
2017-09-07T14:45:58.885Z,70.30
2017-09-07T14:48:26.498Z,70.40
2017-09-07T14:50:54.079Z,70.60
2017-09-07T14:53:21.690Z,71.80
2017-09-07T14:55:49.306Z,74.40
2017-09-07T14:58:16.935Z,75.60
2017-09-07T15:00:44.554Z,74.50
2017-09-07T15:03:12.162Z,74.20
2017-09-07T15:05:39.776Z,75.20
2017-09-07T15:08:07.405Z,74.60
2017-09-07T15:10:35.016Z,74.00
2017-09-07T15:13:02.634Z,74.30
2017-09-07T15:15:30.220Z,74.20
2017-09-07T15:17:57.830Z,72.10
2017-09-07T15:20:25.447Z,71.90
2017-09-07T15:22:53.645Z,70.90
2017-09-07T15:25:21.254Z,70.60
2017-09-07T15:27:48.821Z,70.60
2017-09-07T15:30:16.443Z,72.40
2017-09-07T15:32:44.099Z,71.80
2017-09-07T15:35:11.683Z,71.50
2017-09-07T15:37:39.294Z,74.30
2017-09-07T15:40:06.901Z,73.70
2017-09-07T15:42:34.516Z,73.40
2017-09-07T15:45:02.136Z,75.40
2017-09-07T15:47:29.754Z,75.80
2017-09-07T15:49:57.370Z,76.00
2017-09-07T15:52:24.999Z,75.80
2017-09-07T15:54:52.620Z,77.90
2017-09-07T15:57:20.197Z,77.70
2017-09-07T15:59:47.806Z,78.30
2017-09-07T16:02:15.427Z,78.00
2017-09-07T16:04:43.084Z,78.60
2017-09-07T16:07:10.729Z,79.40
2017-09-07T16:09:38.340Z,79.20
2017-09-07T16:12:05.946Z,80.10
2017-09-07T16:14:34.338Z,80.30
2017-09-07T16:17:01.934Z,80.20
2017-09-07T16:19:29.551Z,81.00
2017-09-07T16:21:57.118Z,82.10
2017-09-07T16:24:24.683Z,83.60
2017-09-07T16:26:52.294Z,82.70
2017-09-07T16:29:19.868Z,85.20
2017-09-07T16:31:47.622Z,83.70
2017-09-07T16:34:15.367Z,84.80
2017-09-07T16:36:42.934Z,84.50
2017-09-07T16:39:11.955Z,85.30
2017-09-07T16:41:39.566Z,85.70
2017-09-07T16:44:07.178Z,86.50
2017-09-07T16:46:34.758Z,86.70
2017-09-07T16:49:02.354Z,86.90
2017-09-07T16:51:29.979Z,88.20
2017-09-07T16:53:57.643Z,88.10
2017-09-07T16:56:25.261Z,89.00
2017-09-07T16:58:52.893Z,88.70
2017-09-07T17:01:20.532Z,89.70
2017-09-07T17:03:48.166Z,89.90
2017-09-07T17:06:15.814Z,90.10
2017-09-07T17:08:43.446Z,90.30
2017-09-07T17:11:11.235Z,90.70
2017-09-07T17:13:38.992Z,90.70
2017-09-07T17:16:06.606Z,91.00
2017-09-07T17:18:34.223Z,91.60
2017-09-07T17:21:01.851Z,91.80
2017-09-07T17:23:29.436Z,92.10
2017-09-07T17:25:57.070Z,92.40
2017-09-07T17:28:24.648Z,92.60
2017-09-07T17:30:52.224Z,92.80
2017-09-07T17:33:19.872Z,93.00
2017-09-07T17:35:47.483Z,93.30
2017-09-07T17:38:15.035Z,93.20
2017-09-07T17:40:42.653Z,93.40
2017-09-07T17:43:10.270Z,93.50
2017-09-07T17:45:37.864Z,93.70
2017-09-07T17:48:05.540Z,93.70
2017-09-07T17:50:33.115Z,93.90
2017-09-07T17:53:00.731Z,93.90
2017-09-07T17:55:28.343Z,94.10
2017-09-07T17:57:55.984Z,94.20
2017-09-07T18:00:23.612Z,94.70
2017-09-07T18:02:51.236Z,95.20
2017-09-07T18:05:18.856Z,95.00
2017-09-07T18:07:46.473Z,95.00
2017-09-07T18:10:14.050Z,95.30
2017-09-07T18:12:41.657Z,95.70
2017-09-07T18:15:09.272Z,95.70
2017-09-07T18:17:37.611Z,96.00
2017-09-07T18:20:05.271Z,96.00
2017-09-07T18:22:32.898Z,96.10
2017-09-07T18:25:00.554Z,96.40
2017-09-07T18:27:28.195Z,96.60
2017-09-07T18:29:56.527Z,96.50
2017-09-07T18:32:24.134Z,96.60
2017-09-07T18:34:51.752Z,96.70
2017-09-07T18:37:19.367Z,96.70
2017-09-07T18:39:46.995Z,96.60
2017-09-07T18:42:14.597Z,96.70
2017-09-07T18:45:23.138Z,96.60
2017-09-07T18:47:50.754Z,96.50
2017-09-07T18:50:19.134Z,96.60
2017-09-07T18:52:46.742Z,96.60
2017-09-07T18:55:14.312Z,96.30
2017-09-07T18:57:41.893Z,96.50
2017-09-07T19:00:09.473Z,96.40
2017-09-07T19:02:37.079Z,96.50
2017-09-07T19:05:04.795Z,96.70
2017-09-07T19:07:32.414Z,96.50
2017-09-07T19:09:59.990Z,96.70
2017-09-07T19:12:27.609Z,97.00
2017-09-07T19:14:55.228Z,97.20
2017-09-07T19:17:22.882Z,97.30
2017-09-07T19:19:50.498Z,97.50
2017-09-07T19:22:18.079Z,97.70
2017-09-07T19:24:45.699Z,97.90
2017-09-07T19:27:13.314Z,98.00
2017-09-07T19:29:40.922Z,98.00
2017-09-07T19:32:08.505Z,97.90
2017-09-07T19:34:36.091Z,98.10
2017-09-07T19:37:03.668Z,98.10
2017-09-07T19:39:31.278Z,98.10
2017-09-07T19:41:58.847Z,98.20
2017-09-07T19:44:26.461Z,98.20
2017-09-07T19:46:54.225Z,98.10
2017-09-07T19:49:21.811Z,98.00
2017-09-07T19:51:49.420Z,98.10
2017-09-07T19:54:17.030Z,98.10
2017-09-07T19:56:44.638Z,98.00
2017-09-07T19:59:12.256Z,98.00
2017-09-07T20:01:39.867Z,98.10
2017-09-07T20:04:07.444Z,98.20
2017-09-07T20:06:35.057Z,98.20
2017-09-07T20:09:02.638Z,97.60
2017-09-07T20:11:30.250Z,97.60
2017-09-07T20:13:57.870Z,97.50
2017-09-07T20:16:25.446Z,97.40
2017-09-07T20:18:53.054Z,97.40
2017-09-07T20:21:20.697Z,97.30
2017-09-07T20:23:48.430Z,97.20
2017-09-07T20:26:16.038Z,97.20
2017-09-07T20:28:43.734Z,97.10
2017-09-07T20:31:11.354Z,97.00
2017-09-07T20:33:38.935Z,97.00
2017-09-07T20:36:06.547Z,97.10
2017-09-07T20:38:34.202Z,97.20
2017-09-07T20:41:01.881Z,97.40
2017-09-07T20:43:29.497Z,97.40
2017-09-07T20:45:57.107Z,97.60
2017-09-07T20:48:25.484Z,97.80
2017-09-07T20:50:53.052Z,97.80
2017-09-07T20:53:21.439Z,97.70
2017-09-07T20:55:49.056Z,98.20
2017-09-07T20:58:16.665Z,97.80
2017-09-07T21:00:44.236Z,97.70
2017-09-07T21:03:11.808Z,97.70
2017-09-07T21:05:39.426Z,97.80
2017-09-07T21:08:07.089Z,98.30
2017-09-07T21:10:34.700Z,98.50
2017-09-07T21:13:02.314Z,98.70
2017-09-07T21:15:30.730Z,98.90
2017-09-07T21:17:58.384Z,98.80
2017-09-07T21:20:26.050Z,98.90
2017-09-07T21:22:53.611Z,98.90
2017-09-07T21:25:21.426Z,99.00
2017-09-07T21:27:49.038Z,99.00
2017-09-07T21:30:16.622Z,99.30
2017-09-07T21:32:44.239Z,99.10
2017-09-07T21:35:11.853Z,99.00
2017-09-07T21:37:39.520Z,99.10
2017-09-07T21:40:07.132Z,99.30
2017-09-07T21:42:34.735Z,99.30
2017-09-07T21:45:02.299Z,99.40
2017-09-07T21:47:29.922Z,99.50
2017-09-07T21:49:57.546Z,99.50
2017-09-07T21:52:25.355Z,99.60
2017-09-07T21:54:52.957Z,99.70
2017-09-07T21:57:20.537Z,99.80
2017-09-07T21:59:48.921Z,99.90
2017-09-07T22:02:16.533Z,99.90
2017-09-07T22:04:44.101Z,99.90
2017-09-07T22:07:11.751Z,99.90
2017-09-07T22:09:39.319Z,99.90
2017-09-07T22:12:06.987Z,99.90
2017-09-07T22:14:34.595Z,99.90
2017-09-07T22:17:02.925Z,99.90
2017-09-07T22:19:30.536Z,99.90
2017-09-07T22:21:58.142Z,99.90
2017-09-07T22:24:25.711Z,99.90
2017-09-07T22:26:53.326Z,99.90
2017-09-07T22:29:20.935Z,99.90
2017-09-07T22:31:48.510Z,99.90
2017-09-07T22:34:16.144Z,99.90
2017-09-07T22:36:43.681Z,99.90
2017-09-07T22:39:11.294Z,99.90
2017-09-07T22:41:39.683Z,99.90
2017-09-07T22:44:08.059Z,99.90
2017-09-07T22:46:35.626Z,99.90
2017-09-07T22:49:03.283Z,99.90
2017-09-07T22:51:30.891Z,99.90
2017-09-07T22:53:58.513Z,99.90
2017-09-07T22:56:26.138Z,99.90
2017-09-07T22:58:53.820Z,99.90
2017-09-07T23:01:21.438Z,99.90
2017-09-07T23:03:49.038Z,99.90
2017-09-07T23:06:16.647Z,99.90
2017-09-07T23:08:44.215Z,99.90
2017-09-07T23:11:11.785Z,99.90
2017-09-07T23:13:39.410Z,99.90
2017-09-07T23:16:06.978Z,99.90
2017-09-07T23:18:34.585Z,99.90
2017-09-07T23:21:02.191Z,99.90
2017-09-07T23:23:30.565Z,99.90
2017-09-07T23:25:58.190Z,99.90
2017-09-07T23:28:25.810Z,99.90
2017-09-07T23:30:53.344Z,99.90
2017-09-07T23:33:20.954Z,99.90
2017-09-07T23:35:48.514Z,99.90
2017-09-07T23:38:16.087Z,99.90
2017-09-07T23:40:43.689Z,99.90
2017-09-07T23:43:11.299Z,99.90
2017-09-07T23:45:38.876Z,99.90
2017-09-07T23:48:06.499Z,99.90
2017-09-07T23:50:34.128Z,99.90
2017-09-07T23:53:01.821Z,99.90
2017-09-07T23:55:29.397Z,99.90
2017-09-07T23:57:56.968Z,99.90
